sensor_id;sensor_type;location;lat;lon;timestamp;temperature;humidity
23289;DHT22;11813;50.834;4.280;2023-05-10T00:00:25;14.40;99.90
23289;DHT22;11813;50.834;4.280;2023-05-10T00:02:51;14.40;99.90
23289;DHT22;11813;50.834;4.280;2023-05-10T00:05:16;14.40;99.90
23289;DHT22;11813;50.834;4.280;2023-05-10T00:07:42;14.40;99.90
23289;DHT22;11813;50.834;4.280;2023-05-10T00:10:10;14.50;99.90
23289;DHT22;11813;50.834;4.280;2023-05-10T00:12:36;14.40;99.90
23289;DHT22;11813;50.834;4.280;2023-05-10T00:15:02;14.40;99.90
23289;DHT22;11813;50.834;4.280;2023-05-10T00:17:28;14.40;99.90
23289;DHT22;11813;50.834;4.280;2023-05-10T00:19:53;14.40;99.90
23289;DHT22;11813;50.834;4.280;2023-05-10T00:22:19;14.50;99.90
23289;DHT22;11813;50.834;4.280;2023-05-10T00:24:45;14.50;99.90
23289;DHT22;11813;50.834;4.280;2023-05-10T00:27:11;14.50;99.90
23289;DHT22;11813;50.834;4.280;2023-05-10T00:29:36;14.50;99.90
23289;DHT22;11813;50.834;4.280;2023-05-10T00:32:02;14.50;99.90
23289;DHT22;11813;50.834;4.280;2023-05-10T00:34:27;14.60;99.90
23289;DHT22;11813;50.834;4.280;2023-05-10T00:36:53;14.50;99.90
23289;DHT22;11813;50.834;4.280;2023-05-10T00:39:19;14.50;99.90
23289;DHT22;11813;50.834;4.280;2023-05-10T00:41:46;14.40;99.90
23289;DHT22;11813;50.834;4.280;2023-05-10T00:44:11;14.30;99.90
23289;DHT22;11813;50.834;4.280;2023-05-10T00:46:37;14.30;99.90
23289;DHT22;11813;50.834;4.280;2023-05-10T00:49:02;14.30;99.90
23289;DHT22;11813;50.834;4.280;2023-05-10T00:51:29;14.30;99.90
23289;DHT22;11813;50.834;4.280;2023-05-10T00:53:56;14.40;99.90
23289;DHT22;11813;50.834;4.280;2023-05-10T00:56:22;14.40;99.90
23289;DHT22;11813;50.834;4.280;2023-05-10T00:58:49;14.40;99.90
23289;DHT22;11813;50.834;4.280;2023-05-10T01:01:15;14.40;99.90
23289;DHT22;11813;50.834;4.280;2023-05-10T01:03:41;14.40;99.90
23289;DHT22;11813;50.834;4.280;2023-05-10T01:06:07;14.40;99.90
23289;DHT22;11813;50.834;4.280;2023-05-10T01:08:33;14.40;99.90
23289;DHT22;11813;50.834;4.280;2023-05-10T01:10:59;14.30;99.90
23289;DHT22;11813;50.834;4.280;2023-05-10T01:13:32;14.30;99.90
23289;DHT22;11813;50.834;4.280;2023-05-10T01:15:59;14.30;99.90
23289;DHT22;11813;50.834;4.280;2023-05-10T01:18:27;14.20;99.90
23289;DHT22;11813;50.834;4.280;2023-05-10T01:29:35;14.00;99.90
23289;DHT22;11813;50.834;4.280;2023-05-10T01:34:59;14.20;99.90
23289;DHT22;11813;50.834;4.280;2023-05-10T01:38:22;14.20;99.90
23289;DHT22;11813;50.834;4.280;2023-05-10T01:40:52;14.10;99.90
23289;DHT22;11813;50.834;4.280;2023-05-10T01:43:28;14.30;99.90
23289;DHT22;11813;50.834;4.280;2023-05-10T01:46:05;14.20;99.90
23289;DHT22;11813;50.834;4.280;2023-05-10T01:48:51;14.20;99.90
23289;DHT22;11813;50.834;4.280;2023-05-10T01:51:23;14.20;99.90
23289;DHT22;11813;50.834;4.280;2023-05-10T01:53:49;14.10;99.90
23289;DHT22;11813;50.834;4.280;2023-05-10T01:56:20;14.10;99.90
23289;DHT22;11813;50.834;4.280;2023-05-10T01:58:48;14.10;99.90
23289;DHT22;11813;50.834;4.280;2023-05-10T02:01:15;14.00;99.90
23289;DHT22;11813;50.834;4.280;2023-05-10T02:03:42;14.00;99.90
23289;DHT22;11813;50.834;4.280;2023-05-10T02:06:10;14.00;99.90
23289;DHT22;11813;50.834;4.280;2023-05-10T02:08:38;14.10;99.90
23289;DHT22;11813;50.834;4.280;2023-05-10T02:11:05;14.10;99.90
23289;DHT22;11813;50.834;4.280;2023-05-10T02:13:32;14.10;99.90
23289;DHT22;11813;50.834;4.280;2023-05-10T02:15:59;14.00;99.90
23289;DHT22;11813;50.834;4.280;2023-05-10T02:18:27;14.00;99.90
23289;DHT22;11813;50.834;4.280;2023-05-10T02:20:54;14.00;99.90
23289;DHT22;11813;50.834;4.280;2023-05-10T02:23:20;14.00;99.90
23289;DHT22;11813;50.834;4.280;2023-05-10T02:25:48;14.00;99.90
23289;DHT22;11813;50.834;4.280;2023-05-10T02:28:15;14.10;99.90
23289;DHT22;11813;50.834;4.280;2023-05-10T02:30:43;14.10;99.90
23289;DHT22;11813;50.834;4.280;2023-05-10T02:33:09;14.20;99.90
23289;DHT22;11813;50.834;4.280;2023-05-10T02:35:37;14.20;99.90
23289;DHT22;11813;50.834;4.280;2023-05-10T02:38:04;14.30;99.90
23289;DHT22;11813;50.834;4.280;2023-05-10T02:40:32;14.10;99.90
23289;DHT22;11813;50.834;4.280;2023-05-10T02:42:59;14.10;99.90
23289;DHT22;11813;50.834;4.280;2023-05-10T02:45:29;14.20;99.90
23289;DHT22;11813;50.834;4.280;2023-05-10T02:47:56;14.20;99.90
23289;DHT22;11813;50.834;4.280;2023-05-10T02:50:22;14.20;99.90
23289;DHT22;11813;50.834;4.280;2023-05-10T02:52:52;14.20;99.90
23289;DHT22;11813;50.834;4.280;2023-05-10T02:55:22;14.20;99.90
23289;DHT22;11813;50.834;4.280;2023-05-10T02:57:59;14.20;99.90
23289;DHT22;11813;50.834;4.280;2023-05-10T03:00:25;14.10;99.90
23289;DHT22;11813;50.834;4.280;2023-05-10T03:02:51;14.10;99.90
23289;DHT22;11813;50.834;4.280;2023-05-10T03:05:17;14.00;99.90
23289;DHT22;11813;50.834;4.280;2023-05-10T03:07:43;14.00;99.90
23289;DHT22;11813;50.834;4.280;2023-05-10T03:10:09;14.00;99.90
23289;DHT22;11813;50.834;4.280;2023-05-10T03:18:15;13.90;99.90
23289;DHT22;11813;50.834;4.280;2023-05-10T03:20:42;13.80;99.90
23289;DHT22;11813;50.834;4.280;2023-05-10T03:23:30;13.80;99.90
23289;DHT22;11813;50.834;4.280;2023-05-10T03:25:59;13.80;99.90
23289;DHT22;11813;50.834;4.280;2023-05-10T03:28:26;13.80;99.90
23289;DHT22;11813;50.834;4.280;2023-05-10T03:30:53;13.80;99.90
23289;DHT22;11813;50.834;4.280;2023-05-10T03:33:20;13.80;99.90
23289;DHT22;11813;50.834;4.280;2023-05-10T03:35:46;13.60;99.90
23289;DHT22;11813;50.834;4.280;2023-05-10T03:38:12;13.60;99.90
23289;DHT22;11813;50.834;4.280;2023-05-10T03:40:39;13.60;99.90
23289;DHT22;11813;50.834;4.280;2023-05-10T03:43:04;13.60;99.90
23289;DHT22;11813;50.834;4.280;2023-05-10T03:45:30;13.60;99.90
23289;DHT22;11813;50.834;4.280;2023-05-10T03:47:57;13.70;99.90
23289;DHT22;11813;50.834;4.280;2023-05-10T03:50:23;13.60;99.90
23289;DHT22;11813;50.834;4.280;2023-05-10T03:52:49;13.70;99.90
23289;DHT22;11813;50.834;4.280;2023-05-10T03:55:15;13.80;99.90
23289;DHT22;11813;50.834;4.280;2023-05-10T03:57:41;13.70;99.90
23289;DHT22;11813;50.834;4.280;2023-05-10T04:00:07;13.70;99.90
23289;DHT22;11813;50.834;4.280;2023-05-10T04:02:33;13.70;99.90
23289;DHT22;11813;50.834;4.280;2023-05-10T04:04:59;13.70;99.90
23289;DHT22;11813;50.834;4.280;2023-05-10T04:07:24;13.70;99.90
23289;DHT22;11813;50.834;4.280;2023-05-10T04:09:50;13.70;99.90
23289;DHT22;11813;50.834;4.280;2023-05-10T04:12:16;13.70;99.90
23289;DHT22;11813;50.834;4.280;2023-05-10T04:14:41;13.70;99.90
23289;DHT22;11813;50.834;4.280;2023-05-10T04:17:07;13.50;99.90
23289;DHT22;11813;50.834;4.280;2023-05-10T04:19:33;13.50;99.90
23289;DHT22;11813;50.834;4.280;2023-05-10T04:21:59;13.50;99.90
23289;DHT22;11813;50.834;4.280;2023-05-10T04:24:25;13.40;99.90
23289;DHT22;11813;50.834;4.280;2023-05-10T04:26:51;13.40;99.90
23289;DHT22;11813;50.834;4.280;2023-05-10T04:29:16;13.40;99.90
23289;DHT22;11813;50.834;4.280;2023-05-10T04:31:42;13.50;99.90
23289;DHT22;11813;50.834;4.280;2023-05-10T04:34:08;13.40;99.90
23289;DHT22;11813;50.834;4.280;2023-05-10T04:36:33;13.40;99.90
23289;DHT22;11813;50.834;4.280;2023-05-10T04:39:01;13.50;99.90
23289;DHT22;11813;50.834;4.280;2023-05-10T04:41:28;13.50;99.90
23289;DHT22;11813;50.834;4.280;2023-05-10T04:43:54;13.40;99.90
23289;DHT22;11813;50.834;4.280;2023-05-10T04:46:20;13.50;99.90
23289;DHT22;11813;50.834;4.280;2023-05-10T04:48:45;13.50;99.90
23289;DHT22;11813;50.834;4.280;2023-05-10T04:51:11;13.50;99.90
23289;DHT22;11813;50.834;4.280;2023-05-10T04:53:37;13.50;99.90
23289;DHT22;11813;50.834;4.280;2023-05-10T04:56:03;13.60;99.90
23289;DHT22;11813;50.834;4.280;2023-05-10T04:58:29;13.70;99.90
23289;DHT22;11813;50.834;4.280;2023-05-10T05:00:54;13.70;99.90
23289;DHT22;11813;50.834;4.280;2023-05-10T05:03:20;13.70;99.90
23289;DHT22;11813;50.834;4.280;2023-05-10T05:05:45;13.50;99.90
23289;DHT22;11813;50.834;4.280;2023-05-10T05:08:11;13.50;99.90
23289;DHT22;11813;50.834;4.280;2023-05-10T05:10:37;13.40;99.90
23289;DHT22;11813;50.834;4.280;2023-05-10T05:13:02;13.30;99.90
23289;DHT22;11813;50.834;4.280;2023-05-10T05:15:28;13.20;99.90
23289;DHT22;11813;50.834;4.280;2023-05-10T05:17:53;13.20;99.90
23289;DHT22;11813;50.834;4.280;2023-05-10T05:20:19;13.30;99.90
23289;DHT22;11813;50.834;4.280;2023-05-10T05:22:45;13.40;99.90
23289;DHT22;11813;50.834;4.280;2023-05-10T05:25:11;13.40;99.90
23289;DHT22;11813;50.834;4.280;2023-05-10T05:27:37;13.40;99.90
23289;DHT22;11813;50.834;4.280;2023-05-10T05:30:03;13.30;99.90
23289;DHT22;11813;50.834;4.280;2023-05-10T05:32:29;13.20;99.90
23289;DHT22;11813;50.834;4.280;2023-05-10T05:34:55;13.20;99.90
23289;DHT22;11813;50.834;4.280;2023-05-10T05:37:21;13.20;99.90
23289;DHT22;11813;50.834;4.280;2023-05-10T05:39:48;13.20;99.90
23289;DHT22;11813;50.834;4.280;2023-05-10T05:42:14;13.20;99.90
23289;DHT22;11813;50.834;4.280;2023-05-10T05:44:41;13.10;99.90
23289;DHT22;11813;50.834;4.280;2023-05-10T05:47:07;13.10;99.90
23289;DHT22;11813;50.834;4.280;2023-05-10T05:49:33;13.10;99.90
23289;DHT22;11813;50.834;4.280;2023-05-10T05:51:59;13.20;99.90
23289;DHT22;11813;50.834;4.280;2023-05-10T05:54:27;13.30;99.90
23289;DHT22;11813;50.834;4.280;2023-05-10T05:56:57;13.30;99.90
23289;DHT22;11813;50.834;4.280;2023-05-10T05:59:23;13.30;99.90
23289;DHT22;11813;50.834;4.280;2023-05-10T06:01:48;13.40;99.90
23289;DHT22;11813;50.834;4.280;2023-05-10T06:04:14;13.40;99.90
23289;DHT22;11813;50.834;4.280;2023-05-10T06:06:40;13.40;99.90
23289;DHT22;11813;50.834;4.280;2023-05-10T06:09:06;13.40;99.90
23289;DHT22;11813;50.834;4.280;2023-05-10T06:11:31;13.50;99.90
23289;DHT22;11813;50.834;4.280;2023-05-10T06:14:00;13.50;99.90
23289;DHT22;11813;50.834;4.280;2023-05-10T06:16:26;13.30;99.90
23289;DHT22;11813;50.834;4.280;2023-05-10T06:18:51;13.40;99.90
23289;DHT22;11813;50.834;4.280;2023-05-10T06:21:17;13.40;99.90
23289;DHT22;11813;50.834;4.280;2023-05-10T06:23:43;13.50;99.90
23289;DHT22;11813;50.834;4.280;2023-05-10T06:26:09;13.40;99.90
23289;DHT22;11813;50.834;4.280;2023-05-10T06:28:35;13.50;99.90
23289;DHT22;11813;50.834;4.280;2023-05-10T06:31:03;13.50;99.90
23289;DHT22;11813;50.834;4.280;2023-05-10T06:33:29;13.50;99.90
23289;DHT22;11813;50.834;4.280;2023-05-10T06:35:54;13.50;99.90
23289;DHT22;11813;50.834;4.280;2023-05-10T06:38:20;13.40;99.90
23289;DHT22;11813;50.834;4.280;2023-05-10T06:40:46;13.30;99.90
23289;DHT22;11813;50.834;4.280;2023-05-10T06:43:11;13.30;99.90
23289;DHT22;11813;50.834;4.280;2023-05-10T06:45:37;13.30;99.90
23289;DHT22;11813;50.834;4.280;2023-05-10T06:48:03;13.20;99.90
23289;DHT22;11813;50.834;4.280;2023-05-10T06:50:28;13.20;99.90
23289;DHT22;11813;50.834;4.280;2023-05-10T06:52:54;13.20;99.90
23289;DHT22;11813;50.834;4.280;2023-05-10T06:55:21;13.20;99.90
23289;DHT22;11813;50.834;4.280;2023-05-10T06:57:46;13.30;99.90
23289;DHT22;11813;50.834;4.280;2023-05-10T07:00:13;13.30;99.90
23289;DHT22;11813;50.834;4.280;2023-05-10T07:02:39;13.20;99.90
23289;DHT22;11813;50.834;4.280;2023-05-10T07:05:05;13.30;99.90
23289;DHT22;11813;50.834;4.280;2023-05-10T07:07:31;13.30;99.90
23289;DHT22;11813;50.834;4.280;2023-05-10T07:09:57;13.30;99.90
23289;DHT22;11813;50.834;4.280;2023-05-10T07:12:23;13.30;99.90
23289;DHT22;11813;50.834;4.280;2023-05-10T07:14:49;13.30;99.90
23289;DHT22;11813;50.834;4.280;2023-05-10T07:17:15;13.40;99.90
23289;DHT22;11813;50.834;4.280;2023-05-10T07:19:41;13.40;99.90
23289;DHT22;11813;50.834;4.280;2023-05-10T07:22:06;13.40;99.90
23289;DHT22;11813;50.834;4.280;2023-05-10T07:24:33;13.30;99.90
23289;DHT22;11813;50.834;4.280;2023-05-10T07:26:58;13.20;99.90
23289;DHT22;11813;50.834;4.280;2023-05-10T07:29:24;13.20;99.90
23289;DHT22;11813;50.834;4.280;2023-05-10T07:31:50;13.20;99.90
23289;DHT22;11813;50.834;4.280;2023-05-10T07:34:15;13.20;99.90
23289;DHT22;11813;50.834;4.280;2023-05-10T07:36:41;13.20;99.90
23289;DHT22;11813;50.834;4.280;2023-05-10T07:39:07;13.20;99.90
23289;DHT22;11813;50.834;4.280;2023-05-10T07:41:33;13.20;99.90
23289;DHT22;11813;50.834;4.280;2023-05-10T07:43:58;13.40;99.90
23289;DHT22;11813;50.834;4.280;2023-05-10T07:46:24;13.40;99.90
23289;DHT22;11813;50.834;4.280;2023-05-10T07:48:49;13.50;99.90
23289;DHT22;11813;50.834;4.280;2023-05-10T07:51:15;13.40;99.90
23289;DHT22;11813;50.834;4.280;2023-05-10T07:53:40;13.50;99.90
23289;DHT22;11813;50.834;4.280;2023-05-10T07:58:47;13.50;99.90
23289;DHT22;11813;50.834;4.280;2023-05-10T08:01:13;13.60;99.90
23289;DHT22;11813;50.834;4.280;2023-05-10T08:03:38;13.70;99.90
23289;DHT22;11813;50.834;4.280;2023-05-10T08:06:04;13.80;99.90
23289;DHT22;11813;50.834;4.280;2023-05-10T08:08:30;13.90;99.90
23289;DHT22;11813;50.834;4.280;2023-05-10T08:10:55;13.80;99.90
23289;DHT22;11813;50.834;4.280;2023-05-10T08:13:21;13.60;99.90
23289;DHT22;11813;50.834;4.280;2023-05-10T08:15:47;13.60;99.90
23289;DHT22;11813;50.834;4.280;2023-05-10T08:18:12;13.70;99.90
23289;DHT22;11813;50.834;4.280;2023-05-10T08:20:38;13.80;99.90
23289;DHT22;11813;50.834;4.280;2023-05-10T08:23:03;14.00;99.90
23289;DHT22;11813;50.834;4.280;2023-05-10T08:25:29;13.90;99.90
23289;DHT22;11813;50.834;4.280;2023-05-10T08:27:55;13.90;99.90
23289;DHT22;11813;50.834;4.280;2023-05-10T08:30:20;13.90;99.90
23289;DHT22;11813;50.834;4.280;2023-05-10T08:32:46;14.00;99.90
23289;DHT22;11813;50.834;4.280;2023-05-10T08:35:12;14.10;99.90
23289;DHT22;11813;50.834;4.280;2023-05-10T08:37:37;14.10;99.90
23289;DHT22;11813;50.834;4.280;2023-05-10T08:40:03;14.10;99.90
23289;DHT22;11813;50.834;4.280;2023-05-10T08:42:30;14.10;99.90
23289;DHT22;11813;50.834;4.280;2023-05-10T08:45:00;14.10;99.90
23289;DHT22;11813;50.834;4.280;2023-05-10T08:47:27;14.10;99.90
23289;DHT22;11813;50.834;4.280;2023-05-10T08:49:54;14.10;99.90
23289;DHT22;11813;50.834;4.280;2023-05-10T08:52:21;14.00;99.90
23289;DHT22;11813;50.834;4.280;2023-05-10T08:54:48;14.00;99.90
23289;DHT22;11813;50.834;4.280;2023-05-10T08:57:14;14.10;99.90
23289;DHT22;11813;50.834;4.280;2023-05-10T08:59:40;14.00;99.90
23289;DHT22;11813;50.834;4.280;2023-05-10T09:02:06;14.00;99.90
23289;DHT22;11813;50.834;4.280;2023-05-10T09:04:35;13.90;99.90
23289;DHT22;11813;50.834;4.280;2023-05-10T09:07:00;13.80;99.90
23289;DHT22;11813;50.834;4.280;2023-05-10T09:09:27;13.90;99.90
23289;DHT22;11813;50.834;4.280;2023-05-10T09:11:53;13.90;99.90
23289;DHT22;11813;50.834;4.280;2023-05-10T09:14:19;14.00;99.90
23289;DHT22;11813;50.834;4.280;2023-05-10T09:16:45;14.00;99.90
23289;DHT22;11813;50.834;4.280;2023-05-10T09:19:12;14.00;99.90
23289;DHT22;11813;50.834;4.280;2023-05-10T09:21:37;13.90;99.90
23289;DHT22;11813;50.834;4.280;2023-05-10T09:24:07;13.80;99.90
23289;DHT22;11813;50.834;4.280;2023-05-10T09:26:34;13.80;99.90
23289;DHT22;11813;50.834;4.280;2023-05-10T09:29:01;14.00;99.90
23289;DHT22;11813;50.834;4.280;2023-05-10T09:31:47;14.00;99.90
23289;DHT22;11813;50.834;4.280;2023-05-10T09:34:28;14.10;99.90
23289;DHT22;11813;50.834;4.280;2023-05-10T09:36:54;14.10;99.90
23289;DHT22;11813;50.834;4.280;2023-05-10T09:39:20;14.00;99.90
23289;DHT22;11813;50.834;4.280;2023-05-10T09:41:47;14.00;99.90
23289;DHT22;11813;50.834;4.280;2023-05-10T09:44:16;14.20;99.90
23289;DHT22;11813;50.834;4.280;2023-05-10T09:46:49;14.20;99.90
23289;DHT22;11813;50.834;4.280;2023-05-10T09:49:14;14.10;99.90
23289;DHT22;11813;50.834;4.280;2023-05-10T09:51:40;14.20;99.90
23289;DHT22;11813;50.834;4.280;2023-05-10T09:54:14;14.20;99.90
23289;DHT22;11813;50.834;4.280;2023-05-10T09:56:40;14.20;99.90
23289;DHT22;11813;50.834;4.280;2023-05-10T09:59:08;14.20;99.90
23289;DHT22;11813;50.834;4.280;2023-05-10T10:01:34;14.10;99.90
23289;DHT22;11813;50.834;4.280;2023-05-10T10:04:03;14.10;99.90
23289;DHT22;11813;50.834;4.280;2023-05-10T10:06:35;14.10;99.90
23289;DHT22;11813;50.834;4.280;2023-05-10T10:09:02;14.30;99.90
23289;DHT22;11813;50.834;4.280;2023-05-10T10:11:28;14.20;99.90
23289;DHT22;11813;50.834;4.280;2023-05-10T10:13:54;14.10;99.90
23289;DHT22;11813;50.834;4.280;2023-05-10T10:16:20;14.00;99.90
23289;DHT22;11813;50.834;4.280;2023-05-10T10:18:47;14.10;99.90
23289;DHT22;11813;50.834;4.280;2023-05-10T10:21:14;14.10;99.90
23289;DHT22;11813;50.834;4.280;2023-05-10T10:23:40;14.00;99.90
23289;DHT22;11813;50.834;4.280;2023-05-10T10:26:06;13.80;99.90
23289;DHT22;11813;50.834;4.280;2023-05-10T10:31:15;14.10;99.90
23289;DHT22;11813;50.834;4.280;2023-05-10T10:33:56;14.10;99.90
23289;DHT22;11813;50.834;4.280;2023-05-10T10:36:24;14.20;99.90
23289;DHT22;11813;50.834;4.280;2023-05-10T10:38:55;14.30;99.90
23289;DHT22;11813;50.834;4.280;2023-05-10T10:52:27;14.70;99.90
23289;DHT22;11813;50.834;4.280;2023-05-10T11:03:14;14.70;99.90
23289;DHT22;11813;50.834;4.280;2023-05-10T11:05:50;14.80;99.90
23289;DHT22;11813;50.834;4.280;2023-05-10T11:08:30;15.00;99.90
23289;DHT22;11813;50.834;4.280;2023-05-10T11:13:41;15.10;99.90
23289;DHT22;11813;50.834;4.280;2023-05-10T11:16:18;15.00;99.90
23289;DHT22;11813;50.834;4.280;2023-05-10T11:19:07;15.10;99.90
23289;DHT22;11813;50.834;4.280;2023-05-10T11:21:34;15.10;99.90
23289;DHT22;11813;50.834;4.280;2023-05-10T11:24:13;15.20;99.90
23289;DHT22;11813;50.834;4.280;2023-05-10T11:26:39;15.20;99.90
23289;DHT22;11813;50.834;4.280;2023-05-10T11:29:05;15.40;99.90
23289;DHT22;11813;50.834;4.280;2023-05-10T11:31:30;15.50;99.90
23289;DHT22;11813;50.834;4.280;2023-05-10T11:33:57;15.60;99.90
23289;DHT22;11813;50.834;4.280;2023-05-10T11:36:27;15.60;99.90
23289;DHT22;11813;50.834;4.280;2023-05-10T11:38:55;15.60;99.90
23289;DHT22;11813;50.834;4.280;2023-05-10T11:41:21;15.50;99.90
23289;DHT22;11813;50.834;4.280;2023-05-10T11:43:49;15.70;99.90
23289;DHT22;11813;50.834;4.280;2023-05-10T11:46:15;15.60;99.90
23289;DHT22;11813;50.834;4.280;2023-05-10T11:48:42;15.70;99.90
23289;DHT22;11813;50.834;4.280;2023-05-10T11:51:08;15.80;99.90
23289;DHT22;11813;50.834;4.280;2023-05-10T11:53:34;15.80;99.90
23289;DHT22;11813;50.834;4.280;2023-05-10T11:56:09;15.90;99.90
23289;DHT22;11813;50.834;4.280;2023-05-10T11:58:37;15.90;99.90
23289;DHT22;11813;50.834;4.280;2023-05-10T12:01:04;16.00;99.90
23289;DHT22;11813;50.834;4.280;2023-05-10T12:03:31;16.10;99.90
23289;DHT22;11813;50.834;4.280;2023-05-10T12:05:57;16.20;99.90
23289;DHT22;11813;50.834;4.280;2023-05-10T12:08:25;16.00;99.90
23289;DHT22;11813;50.834;4.280;2023-05-10T12:10:51;16.10;99.90
23289;DHT22;11813;50.834;4.280;2023-05-10T12:13:18;16.10;99.90
23289;DHT22;11813;50.834;4.280;2023-05-10T12:15:44;15.90;99.90
23289;DHT22;11813;50.834;4.280;2023-05-10T12:18:11;15.90;99.90
23289;DHT22;11813;50.834;4.280;2023-05-10T12:20:37;15.90;99.90
23289;DHT22;11813;50.834;4.280;2023-05-10T12:23:03;16.10;99.90
23289;DHT22;11813;50.834;4.280;2023-05-10T12:25:36;16.40;99.90
23289;DHT22;11813;50.834;4.280;2023-05-10T12:28:07;16.50;99.90
23289;DHT22;11813;50.834;4.280;2023-05-10T12:30:35;16.60;99.90
23289;DHT22;11813;50.834;4.280;2023-05-10T12:33:06;16.70;99.90
23289;DHT22;11813;50.834;4.280;2023-05-10T12:35:33;16.70;99.90
23289;DHT22;11813;50.834;4.280;2023-05-10T12:37:59;16.70;99.90
23289;DHT22;11813;50.834;4.280;2023-05-10T12:40:25;16.50;99.90
23289;DHT22;11813;50.834;4.280;2023-05-10T12:42:51;16.70;99.90
23289;DHT22;11813;50.834;4.280;2023-05-10T12:45:18;16.90;99.90
23289;DHT22;11813;50.834;4.280;2023-05-10T12:47:43;17.10;99.90
23289;DHT22;11813;50.834;4.280;2023-05-10T12:50:09;17.20;99.90
23289;DHT22;11813;50.834;4.280;2023-05-10T12:52:35;17.10;99.90
23289;DHT22;11813;50.834;4.280;2023-05-10T12:55:01;17.00;99.90
23289;DHT22;11813;50.834;4.280;2023-05-10T12:57:28;17.00;99.90
23289;DHT22;11813;50.834;4.280;2023-05-10T12:59:54;17.00;99.90
23289;DHT22;11813;50.834;4.280;2023-05-10T13:02:20;17.20;99.90
23289;DHT22;11813;50.834;4.280;2023-05-10T13:04:47;17.30;99.90
23289;DHT22;11813;50.834;4.280;2023-05-10T13:07:13;17.40;99.90
23289;DHT22;11813;50.834;4.280;2023-05-10T13:09:39;17.60;99.90
23289;DHT22;11813;50.834;4.280;2023-05-10T13:12:05;17.80;99.90
23289;DHT22;11813;50.834;4.280;2023-05-10T13:14:31;18.00;99.90
23289;DHT22;11813;50.834;4.280;2023-05-10T13:16:57;18.00;99.90
23289;DHT22;11813;50.834;4.280;2023-05-10T13:19:22;18.10;99.90
23289;DHT22;11813;50.834;4.280;2023-05-10T13:21:48;18.20;99.90
23289;DHT22;11813;50.834;4.280;2023-05-10T13:24:14;17.90;99.90
23289;DHT22;11813;50.834;4.280;2023-05-10T13:26:42;17.70;99.90
23289;DHT22;11813;50.834;4.280;2023-05-10T13:29:08;17.60;99.90
23289;DHT22;11813;50.834;4.280;2023-05-10T13:31:34;17.50;99.90
23289;DHT22;11813;50.834;4.280;2023-05-10T13:34:00;17.50;99.90
23289;DHT22;11813;50.834;4.280;2023-05-10T13:36:26;17.50;99.90
23289;DHT22;11813;50.834;4.280;2023-05-10T13:38:52;17.70;99.90
23289;DHT22;11813;50.834;4.280;2023-05-10T13:41:17;17.90;99.90
23289;DHT22;11813;50.834;4.280;2023-05-10T13:43:43;18.10;99.90
23289;DHT22;11813;50.834;4.280;2023-05-10T13:46:09;18.20;99.90
23289;DHT22;11813;50.834;4.280;2023-05-10T13:48:34;18.40;99.90
23289;DHT22;11813;50.834;4.280;2023-05-10T13:51:02;18.50;99.90
23289;DHT22;11813;50.834;4.280;2023-05-10T13:53:28;18.70;99.90
23289;DHT22;11813;50.834;4.280;2023-05-10T13:55:53;18.80;99.90
23289;DHT22;11813;50.834;4.280;2023-05-10T13:58:19;18.80;99.90
23289;DHT22;11813;50.834;4.280;2023-05-10T14:00:45;18.80;99.90
23289;DHT22;11813;50.834;4.280;2023-05-10T14:03:10;18.70;99.90
23289;DHT22;11813;50.834;4.280;2023-05-10T14:05:36;18.60;99.90
23289;DHT22;11813;50.834;4.280;2023-05-10T14:08:02;18.70;99.90
23289;DHT22;11813;50.834;4.280;2023-05-10T14:10:28;18.70;99.90
23289;DHT22;11813;50.834;4.280;2023-05-10T14:12:53;18.90;99.90
23289;DHT22;11813;50.834;4.280;2023-05-10T14:15:19;19.00;99.90
23289;DHT22;11813;50.834;4.280;2023-05-10T14:17:44;19.00;99.90
23289;DHT22;11813;50.834;4.280;2023-05-10T14:20:10;18.70;99.90
23289;DHT22;11813;50.834;4.280;2023-05-10T14:22:36;18.70;99.90
23289;DHT22;11813;50.834;4.280;2023-05-10T14:25:02;18.70;99.90
23289;DHT22;11813;50.834;4.280;2023-05-10T14:27:28;18.60;99.90
23289;DHT22;11813;50.834;4.280;2023-05-10T14:29:53;18.40;99.90
23289;DHT22;11813;50.834;4.280;2023-05-10T14:32:19;18.20;99.90
23289;DHT22;11813;50.834;4.280;2023-05-10T14:34:45;18.00;99.90
23289;DHT22;11813;50.834;4.280;2023-05-10T14:37:11;17.90;99.90
23289;DHT22;11813;50.834;4.280;2023-05-10T14:39:37;17.50;99.90
23289;DHT22;11813;50.834;4.280;2023-05-10T14:42:03;17.10;99.90
23289;DHT22;11813;50.834;4.280;2023-05-10T14:44:28;16.90;99.90
23289;DHT22;11813;50.834;4.280;2023-05-10T14:46:54;16.80;99.90
23289;DHT22;11813;50.834;4.280;2023-05-10T14:49:21;16.50;99.90
23289;DHT22;11813;50.834;4.280;2023-05-10T14:51:48;16.50;99.90
23289;DHT22;11813;50.834;4.280;2023-05-10T14:54:14;16.20;99.90
23289;DHT22;11813;50.834;4.280;2023-05-10T14:56:39;16.00;99.90
23289;DHT22;11813;50.834;4.280;2023-05-10T14:59:07;16.00;99.90
23289;DHT22;11813;50.834;4.280;2023-05-10T15:01:33;15.70;99.90
23289;DHT22;11813;50.834;4.280;2023-05-10T15:04:00;15.60;99.90
23289;DHT22;11813;50.834;4.280;2023-05-10T15:06:33;15.30;99.90
23289;DHT22;11813;50.834;4.280;2023-05-10T15:09:00;15.30;99.90
23289;DHT22;11813;50.834;4.280;2023-05-10T15:11:26;15.30;99.90
23289;DHT22;11813;50.834;4.280;2023-05-10T15:13:53;15.30;99.90
23289;DHT22;11813;50.834;4.280;2023-05-10T15:16:18;15.20;99.90
23289;DHT22;11813;50.834;4.280;2023-05-10T15:18:44;15.20;99.90
23289;DHT22;11813;50.834;4.280;2023-05-10T15:21:10;15.20;99.90
23289;DHT22;11813;50.834;4.280;2023-05-10T15:23:36;15.30;99.90
23289;DHT22;11813;50.834;4.280;2023-05-10T15:26:02;15.50;99.90
23289;DHT22;11813;50.834;4.280;2023-05-10T15:28:28;15.50;99.90
23289;DHT22;11813;50.834;4.280;2023-05-10T15:30:54;15.60;99.90
23289;DHT22;11813;50.834;4.280;2023-05-10T15:33:19;15.70;99.90
23289;DHT22;11813;50.834;4.280;2023-05-10T15:35:45;15.60;99.90
23289;DHT22;11813;50.834;4.280;2023-05-10T15:38:11;15.60;99.90
23289;DHT22;11813;50.834;4.280;2023-05-10T15:40:36;15.50;99.90
23289;DHT22;11813;50.834;4.280;2023-05-10T15:43:02;15.60;99.90
23289;DHT22;11813;50.834;4.280;2023-05-10T15:45:28;15.60;99.90
23289;DHT22;11813;50.834;4.280;2023-05-10T15:47:53;15.60;99.90
23289;DHT22;11813;50.834;4.280;2023-05-10T15:50:19;15.80;99.90
23289;DHT22;11813;50.834;4.280;2023-05-10T15:52:45;15.80;99.90
23289;DHT22;11813;50.834;4.280;2023-05-10T15:55:10;16.00;99.90
23289;DHT22;11813;50.834;4.280;2023-05-10T15:57:40;16.10;99.90
23289;DHT22;11813;50.834;4.280;2023-05-10T16:00:08;16.40;99.90
23289;DHT22;11813;50.834;4.280;2023-05-10T16:02:34;16.70;99.90
23289;DHT22;11813;50.834;4.280;2023-05-10T16:05:00;17.10;99.90
23289;DHT22;11813;50.834;4.280;2023-05-10T16:07:26;17.50;99.90
23289;DHT22;11813;50.834;4.280;2023-05-10T16:09:51;17.80;99.90
23289;DHT22;11813;50.834;4.280;2023-05-10T16:12:17;18.00;99.90